Time;durP1;ratioP1;P1;durP2;ratioP2;P2;SDS_P1;SDS_P2;PMS_P1;PMS_P2;Temp;Humidity;BMP_temperature;BMP_pressure;BME280_temperature;BME280_humidity;BME280_pressure;Samples;Min_cycle;Max_cycle;Signal;HPM_P1;HPM_P2
2024/01/14 00:03:06;;;;;;;23.10;13.60;;;;;;;-0.99;91.35;97553.10;435190;1255;110183;-40
2024/01/14 00:13:12;;;;;;;19.90;11.40;;;;;;;-1.01;91.27;97537.55;435123;1256;108102;-39
2024/01/14 00:23:20;;;;;;;17.40;10.50;;;;;;;-0.91;91.18;97532.31;435243;1251;98713;-40
2024/01/14 00:53:39;;;;;;;19.60;10.20;;;;;;;-0.92;91.48;97496.79;434992;1252;349610;-40
2024/01/14 01:03:46;;;;;;;16.10;11.20;;;;;;;-0.91;91.39;97486.78;435245;1253;107112;-40
2024/01/14 01:13:52;;;;;;;24.00;10.10;;;;;;;-0.91;91.52;97479.20;435216;1251;99247;-38
2024/01/14 01:23:59;;;;;;;20.80;11.60;;;;;;;-1.00;91.79;97465.04;435098;1255;108787;-39
2024/01/14 01:34:05;;;;;;;15.90;10.90;;;;;;;-1.12;91.86;97454.91;435179;1253;99233;-39
2024/01/14 01:44:12;;;;;;;15.90;9.40;;;;;;;-1.10;91.94;97435.01;435155;1256;113059;-39
2024/01/14 01:54:23;;;;;;;16.60;9.50;;;;;;;-1.05;92.19;97424.24;435161;1256;107859;-39
2024/01/14 02:04:31;;;;;;;17.30;10.00;;;;;;;-1.00;92.26;97398.77;435211;1253;99327;-39
2024/01/14 02:14:39;;;;;;;15.30;8.90;;;;;;;-1.02;92.44;97376.20;435203;1252;108918;-39
2024/01/14 02:24:46;;;;;;;13.00;8.70;;;;;;;-0.99;92.60;97358.83;435175;1251;98022;-39
2024/01/14 02:34:53;;;;;;;12.70;7.50;;;;;;;-0.94;92.56;97351.54;435154;1251;111973;-39
2024/01/14 02:45:00;;;;;;;14.10;8.20;;;;;;;-0.92;92.90;97346.05;435279;1255;107544;-40
2024/01/14 03:15:19;;;;;;;14.20;8.60;;;;;;;-1.06;93.91;97283.23;435297;1254;98830;-39
2024/01/14 03:25:26;;;;;;;12.80;8.50;;;;;;;-1.05;94.61;97280.00;435332;1250;110654;-39
2024/01/14 03:35:34;;;;;;;11.50;6.70;;;;;;;-1.08;94.45;97269.84;435278;1254;106349;-41
2024/01/14 03:55:47;;;;;;;12.50;7.70;;;;;;;-1.03;94.50;97254.98;435429;1254;107519;-38
2024/01/14 04:05:53;;;;;;;18.20;10.50;;;;;;;-1.04;94.96;97247.11;435339;1254;99112;-38
2024/01/14 04:16:00;;;;;;;13.40;8.00;;;;;;;-1.08;95.31;97258.47;435440;1250;111942;-39
2024/01/14 04:26:08;;;;;;;11.90;7.70;;;;;;;-1.02;95.15;97257.39;435367;1250;108249;-40
2024/01/14 04:46:22;;;;;;;13.20;8.00;;;;;;;-0.86;95.60;97243.24;435305;1251;107520;-39
2024/01/14 05:06:35;;;;;;;17.10;10.80;;;;;;;-0.81;95.75;97228.92;435395;1255;111895;-40
2024/01/14 05:16:41;;;;;;;11.40;7.20;;;;;;;-0.79;95.91;97219.00;435197;1251;107637;-38
2024/01/14 05:36:54;;;;;;;11.50;7.60;;;;;;;-0.65;96.16;97218.31;435351;1255;108578;-41
2024/01/14 05:47:01;;;;;;;9.10;7.30;;;;;;;-0.58;96.04;97222.02;435411;1250;98601;-39
2024/01/14 05:57:08;;;;;;;11.30;8.90;;;;;;;-0.55;96.19;97216.80;435368;1254;113368;-39
2024/01/14 06:07:15;;;;;;;17.70;9.60;;;;;;;-0.54;96.39;97197.66;435298;1250;108329;-39
2024/01/14 06:17:22;;;;;;;13.80;8.20;;;;;;;-0.58;96.41;97200.96;435402;1256;99332;-39
2024/01/14 06:27:29;;;;;;;25.10;15.00;;;;;;;-0.55;96.24;97198.70;435335;1256;111722;-40
2024/01/14 06:47:43;;;;;;;18.50;10.40;;;;;;;-0.41;96.77;97195.16;435323;1250;99268;-39
2024/01/14 06:57:50;;;;;;;16.70;9.00;;;;;;;-0.40;96.77;97196.29;435158;1250;108306;-41
2024/01/14 07:07:57;;;;;;;12.20;9.00;;;;;;;-0.39;96.74;97202.48;435356;1255;99403;-40
2024/01/14 07:18:04;;;;;;;40.30;21.20;;;;;;;-0.35;96.90;97214.42;435208;1256;111919;-40
2024/01/14 07:28:12;;;;;;;15.20;9.70;;;;;;;-0.35;97.00;97228.81;435300;1250;106790;-38
2024/01/14 07:38:19;;;;;;;20.30;14.40;;;;;;;-0.28;97.06;97229.42;435370;1256;98714;-40
2024/01/14 07:58:32;;;;;;;7.90;6.50;;;;;;;-0.10;97.18;97231.41;435427;1257;99339;-39
2024/01/14 08:08:40;;;;;;;14.50;7.40;;;;;;;0.08;97.01;97233.36;435337;1250;111531;-40
2024/01/14 08:18:47;;;;;;;16.70;9.00;;;;;;;0.13;97.11;97236.54;435375;1250;107632;-39
2024/01/14 08:28:54;;;;;;;14.60;7.80;;;;;;;0.15;96.94;97224.51;435362;1250;99214;-40
2024/01/14 08:39:01;;;;;;;9.00;5.30;;;;;;;0.31;96.83;97223.89;435384;1250;108371;-39
2024/01/14 08:49:09;;;;;;;10.30;7.60;;;;;;;0.38;96.73;97226.52;435323;1256;98820;-39
2024/01/14 08:59:17;;;;;;;24.10;13.40;;;;;;;0.53;97.01;97226.70;435464;1256;112106;-39
2024/01/14 09:09:24;;;;;;;12.90;8.70;;;;;;;0.65;96.95;97225.58;435342;1251;107098;-38
2024/01/14 09:29:35;;;;;;;11.60;5.10;;;;;;;1.08;96.60;97244.79;435376;1256;108017;-40
2024/01/14 09:39:42;;;;;;;9.90;5.90;;;;;;;1.13;96.33;97251.02;435212;1256;99197;-40
2024/01/14 09:49:50;;;;;;;8.80;4.70;;;;;;;1.25;96.31;97247.52;435498;1256;111465;-38
2024/01/14 10:00:02;;;;;;;44.90;19.70;;;;;;;1.62;96.08;97236.09;435384;1256;107801;-39
2024/01/14 10:10:09;;;;;;;28.30;13.50;;;;;;;1.66;95.74;97233.27;435390;1257;99963;-40
2024/01/14 10:20:19;;;;;;;20.40;10.70;;;;;;;1.67;95.67;97220.96;435442;1264;108139;-38
2024/01/14 10:30:26;;;;;;;7.60;5.20;;;;;;;1.59;95.16;97220.52;435359;1256;99234;-38
2024/01/14 10:40:33;;;;;;;10.50;6.00;;;;;;;1.71;95.00;97215.43;435204;1251;111540;-38
2024/01/14 10:50:44;;;;;;;15.80;8.40;;;;;;;1.68;94.89;97209.18;435286;1256;109789;-42
2024/01/14 11:00:57;;;;;;;10.80;6.30;;;;;;;1.48;94.51;97197.00;435450;1256;99863;-39
2024/01/14 11:11:04;;;;;;;12.40;6.40;;;;;;;1.31;94.06;97193.89;435279;1255;108497;-39
2024/01/14 11:42:23;;;;;;;4.90;3.50;;;;;;;1.24;93.49;97186.64;435340;1256;107978;-40
2024/01/14 11:52:30;;;;;;;14.40;7.80;;;;;;;1.47;93.69;97188.34;435403;1264;98344;-40
2024/01/14 12:02:37;;;;;;;18.50;9.30;;;;;;;1.46;93.38;97185.27;435230;1256;112003;-39
2024/01/14 12:12:45;;;;;;;85.30;26.10;;;;;;;1.53;93.56;97173.27;435429;1257;107468;-39
2024/01/14 12:33:06;;;;;;;15.50;9.00;;;;;;;1.48;93.01;97174.41;435153;1256;108791;-39
2024/01/14 12:43:13;;;;;;;29.40;12.20;;;;;;;1.44;92.98;97171.98;435331;1251;99502;-39
2024/01/14 12:53:20;;;;;;;13.20;7.60;;;;;;;1.06;92.80;97169.23;434954;1252;587410;-40
2024/01/14 13:03:30;;;;;;;14.80;7.50;;;;;;;1.00;92.98;97167.20;435327;1256;106542;-39
2024/01/14 13:13:38;;;;;;;18.50;8.80;;;;;;;0.96;93.08;97165.25;435513;1251;99220;-40
2024/01/14 13:23:45;;;;;;;37.80;14.00;;;;;;;0.86;93.33;97167.27;435224;1257;109444;-39
2024/01/14 13:33:50;;;;;;;18.20;10.50;;;;;;;0.89;93.56;97168.78;435792;1255;99238;-38
2024/01/14 13:44:09;;;;;;;13.80;10.00;;;;;;;0.88;93.32;97169.66;435859;1254;111066;-41
2024/01/14 13:54:24;;;;;;;11.80;7.80;;;;;;;0.82;93.23;97167.36;435286;1251;108622;-39
2024/01/14 14:04:32;;;;;;;24.00;13.60;;;;;;;0.70;93.43;97176.78;435287;1251;99245;-38
2024/01/14 14:14:40;;;;;;;17.90;9.30;;;;;;;0.55;93.54;97180.48;435425;1254;108755;-41
2024/01/14 14:34:53;;;;;;;16.70;11.90;;;;;;;0.41;93.80;97165.13;435387;1251;110679;-41
2024/01/14 14:44:59;;;;;;;10.80;7.30;;;;;;;0.36;93.87;97146.92;435428;1257;108623;-39
2024/01/14 14:55:08;;;;;;;25.50;15.00;;;;;;;0.28;94.09;97147.78;435258;1262;99246;-40
2024/01/14 15:05:14;;;;;;;30.90;15.50;;;;;;;0.26;94.11;97138.54;435532;1251;107884;-39
2024/01/14 15:25:27;;;;;;;14.30;8.10;;;;;;;0.16;94.04;97143.29;435350;1254;112347;-40
2024/01/14 15:35:35;;;;;;;17.30;9.00;;;;;;;0.23;93.97;97148.13;435235;1251;107544;-39
2024/01/14 15:45:43;;;;;;;11.70;6.20;;;;;;;0.25;93.91;97141.46;435395;1251;99254;-40
2024/01/14 15:55:50;;;;;;;37.80;18.80;;;;;;;0.22;94.01;97136.14;435304;1251;107949;-39
2024/01/14 16:05:57;;;;;;;27.10;15.50;;;;;;;0.12;94.17;97127.48;435372;1251;99218;-39
2024/01/14 16:16:06;;;;;;;19.00;8.30;;;;;;;0.11;94.06;97120.27;435161;1254;111900;-39
2024/01/14 16:26:12;;;;;;;17.20;10.90;;;;;;;0.16;94.05;97120.02;435360;1251;108764;-40
2024/01/14 16:36:21;;;;;;;18.80;11.40;;;;;;;0.21;93.99;97117.28;435231;1250;98591;-40
2024/01/14 16:46:28;;;;;;;25.40;13.60;;;;;;;0.21;94.07;97118.70;435436;1254;108445;-39
2024/01/14 17:06:44;;;;;;;16.10;8.80;;;;;;;0.10;93.99;97101.27;435310;1254;112966;-39
2024/01/14 17:16:51;;;;;;;14.60;10.40;;;;;;;0.14;93.92;97095.59;435211;1251;107451;-38
2024/01/14 17:26:57;;;;;;;14.30;9.80;;;;;;;0.18;94.02;97092.94;435271;1251;99234;-38
2024/01/14 17:37:03;;;;;;;30.20;18.10;;;;;;;0.19;94.07;97091.61;435404;1254;108841;-39
2024/01/14 17:47:10;;;;;;;29.70;17.20;;;;;;;0.09;94.13;97076.16;435373;1254;98031;-40
2024/01/14 17:57:16;;;;;;;26.50;13.90;;;;;;;0.02;94.30;97064.06;435440;1255;111277;-39
2024/01/14 18:17:30;;;;;;;20.60;12.40;;;;;;;0.11;94.28;97049.52;435226;1254;98374;-38
2024/01/14 18:27:37;;;;;;;26.40;16.00;;;;;;;0.14;94.24;97045.32;435413;1256;108250;-39
2024/01/14 18:37:43;;;;;;;37.10;19.70;;;;;;;0.08;94.52;97049.98;435360;1253;98005;-40
2024/01/14 18:57:56;;;;;;;27.30;15.10;;;;;;;0.06;94.50;97031.39;435363;1254;108421;-39
2024/01/14 19:28:18;;;;;;;33.60;16.10;;;;;;;0.04;94.71;97018.57;435300;1254;99236;-39
2024/01/14 19:48:30;;;;;;;20.00;13.20;;;;;;;-0.01;94.55;96988.00;435213;1254;108075;-40
2024/01/14 20:08:43;;;;;;;19.80;12.80;;;;;;;0.06;94.54;96969.30;435201;1254;108554;-38
2024/01/14 20:18:50;;;;;;;37.50;20.50;;;;;;;0.03;94.62;96949.41;435404;1251;98830;-39
2024/01/14 20:28:57;;;;;;;30.00;14.00;;;;;;;-0.04;94.46;96931.20;435326;1254;112969;-39
2024/01/14 20:39:04;;;;;;;20.80;12.20;;;;;;;-0.05;94.26;96913.79;435295;1250;107679;-39
2024/01/14 20:49:12;;;;;;;21.40;14.00;;;;;;;-0.04;94.26;96903.87;435356;1251;99278;-39
2024/01/14 20:59:19;;;;;;;27.40;13.80;;;;;;;-0.02;94.22;96896.50;435357;1254;109019;-38
2024/01/14 21:19:33;;;;;;;17.50;9.40;;;;;;;-0.09;93.96;96889.86;435521;1252;111853;-38
2024/01/14 21:29:41;;;;;;;17.30;11.20;;;;;;;-0.05;93.98;96875.65;435246;1250;108564;-39
2024/01/14 22:00:01;;;;;;;42.10;19.90;;;;;;;-0.30;93.42;96853.84;435176;1254;99230;-39
2024/01/14 22:10:10;;;;;;;26.70;13.10;;;;;;;-0.42;93.26;96838.17;435319;1254;111398;-39
2024/01/14 22:20:18;;;;;;;22.30;11.70;;;;;;;-0.46;93.26;96826.55;435298;1250;107593;-40
2024/01/14 22:30:25;;;;;;;27.30;13.20;;;;;;;-0.51;93.13;96817.36;435244;1250;99246;-40
2024/01/14 22:40:31;;;;;;;44.30;22.10;;;;;;;-0.54;93.46;96812.79;435289;1254;109551;-40
2024/01/14 22:50:39;;;;;;;39.00;20.90;;;;;;;-0.58;93.36;96800.15;435460;1254;99252;-40
2024/01/14 23:00:45;;;;;;;28.80;16.80;;;;;;;-0.58;93.23;96784.45;435318;1250;111437;-39
2024/01/14 23:10:53;;;;;;;26.20;14.10;;;;;;;-0.52;93.21;96765.45;435210;1252;107607;-38
2024/01/14 23:21:02;;;;;;;28.20;15.10;;;;;;;-0.47;93.37;96759.53;435296;1254;99559;-39
2024/01/14 23:31:08;;;;;;;30.80;14.50;;;;;;;-0.41;93.43;96751.45;435311;1250;108015;-38
2024/01/14 23:51:19;;;;;;;27.60;12.10;;;;;;;-0.57;93.28;96703.14;435215;1256;112968;-40
